Time;durP1;ratioP1;P1;durP2;ratioP2;P2;SDS_P1;SDS_P2;PMS_P1;PMS_P2;Temp;Humidity;BMP_temperature;BMP_pressure;BME280_temperature;BME280_humidity;BME280_pressure;Samples;Min_cycle;Max_cycle;Signal;HPM_P1;HPM_P2
2022/06/04 00:02:10;;;;;;;10.47;9.50;;;;;;;;;;5074193;28;20453;-75
2022/06/04 00:04:36;;;;;;;12.70;10.40;;;;;;;;;;5057028;28;20557;-76
2022/06/04 00:07:03;;;;;;;10.93;9.93;;;;;;;;;;5067560;28;20423;-76
2022/06/04 00:09:30;;;;;;;12.43;11.33;;;;;;;;;;5067057;28;21229;-75
2022/06/04 00:17:41;;;;;;;10.57;9.57;;;;;;;;;;5016234;28;20472;-76
2022/06/04 00:20:08;;;;;;;10.03;9.20;;;;;;;;;;5013650;28;20831;-76
2022/06/04 00:22:34;;;;;;;10.87;9.87;;;;;;;;;;5055371;28;20553;-76
2022/06/04 00:25:01;;;;;;;10.83;9.87;;;;;;;;;;5071815;28;20429;-76
2022/06/04 00:27:28;;;;;;;10.03;9.10;;;;;;;;;;5071649;28;20430;-75
2022/06/04 00:29:54;;;;;;;10.47;9.47;;;;;;;;;;5084676;28;20462;-76
2022/06/04 00:32:21;;;;;;;9.40;8.60;;;;;;;;;;5065654;28;21029;-75
2022/06/04 00:34:49;;;;;;;9.80;9.00;;;;;;;;;;5066552;28;20537;-76
2022/06/04 00:37:15;;;;;;;11.43;9.70;;;;;;;;;;5078973;28;20809;-76
2022/06/04 00:39:42;;;;;;;11.67;10.50;;;;;;;;;;5058064;28;20507;-75
2022/06/04 00:42:10;;;;;;;11.40;10.40;;;;;;;;;;5070033;28;20461;-75
2022/06/04 00:44:55;;;;;;;11.97;10.87;;;;;;;;;;5069897;28;20442;-75
2022/06/04 00:47:24;;;;;;;12.33;11.10;;;;;;;;;;5070644;28;20818;-76
2022/06/04 00:49:52;;;;;;;11.90;10.80;;;;;;;;;;5054937;28;20507;-76
2022/06/04 00:52:19;;;;;;;12.20;11.20;;;;;;;;;;5050629;28;20427;-75
2022/06/04 00:54:46;;;;;;;12.47;11.37;;;;;;;;;;5049458;28;20512;-75
2022/06/04 00:57:19;;;;;;;13.27;10.80;;;;;;;;;;5064673;28;20461;-76
2022/06/04 00:59:49;;;;;;;11.73;10.60;;;;;;;;;;5066213;28;20489;-76
2022/06/04 01:02:20;;;;;;;11.43;10.33;;;;;;;;;;5050996;28;20419;-75
2022/06/04 01:04:52;;;;;;;10.53;9.53;;;;;;;;;;5056958;28;20463;-75
2022/06/04 01:07:27;;;;;;;12.17;11.00;;;;;;;;;;5069391;28;20968;-76
2022/06/04 01:10:00;;;;;;;12.77;11.50;;;;;;;;;;5067884;28;20552;-75
2022/06/04 01:12:41;;;;;;;13.70;11.93;;;;;;;;;;5069645;28;20468;-76
2022/06/04 01:15:13;;;;;;;13.57;12.27;;;;;;;;;;5058672;28;20455;-76
2022/06/04 01:17:48;;;;;;;11.60;10.40;;;;;;;;;;5062162;28;20463;-75
2022/06/04 01:20:17;;;;;;;12.57;11.30;;;;;;;;;;5064265;28;20464;-76
2022/06/04 01:23:07;;;;;;;12.03;10.90;;;;;;;;;;5055457;28;20485;-76
2022/06/04 01:25:40;;;;;;;12.60;11.40;;;;;;;;;;5066071;28;20504;-75
2022/06/04 01:28:09;;;;;;;12.63;11.43;;;;;;;;;;5066452;28;20463;-75
2022/06/04 01:30:37;;;;;;;13.43;11.47;;;;;;;;;;5067275;28;20454;-76
2022/06/04 01:33:06;;;;;;;13.13;11.93;;;;;;;;;;5068821;28;20442;-76
2022/06/04 01:35:34;;;;;;;11.60;10.50;;;;;;;;;;5071089;28;20764;-75
2022/06/04 01:38:03;;;;;;;11.77;10.57;;;;;;;;;;5067090;28;20557;-76
2022/06/04 01:43:19;;;;;;;10.00;9.10;;;;;;;;;;5052254;28;20776;-75
2022/06/04 01:45:47;;;;;;;9.13;8.33;;;;;;;;;;5072433;28;20505;-75
2022/06/04 01:48:15;;;;;;;11.03;9.93;;;;;;;;;;5058291;28;20509;-76
2022/06/04 01:50:44;;;;;;;10.30;9.30;;;;;;;;;;5057389;28;20941;-76
2022/06/04 01:53:12;;;;;;;9.57;8.00;;;;;;;;;;5070192;28;20791;-76
2022/06/04 01:55:41;;;;;;;9.83;8.97;;;;;;;;;;5055250;28;20435;-75
2022/06/04 01:58:12;;;;;;;9.77;8.77;;;;;;;;;;5072169;28;20903;-76
2022/06/04 02:00:41;;;;;;;10.80;9.80;;;;;;;;;;5090286;28;20994;-75
2022/06/04 02:03:09;;;;;;;10.93;10.00;;;;;;;;;;5092995;28;20808;-75
2022/06/04 02:05:39;;;;;;;11.07;10.07;;;;;;;;;;5068696;28;20458;-75
2022/06/04 02:08:06;;;;;;;11.23;10.17;;;;;;;;;;5059217;28;20441;-76
2022/06/04 02:10:35;;;;;;;11.00;10.07;;;;;;;;;;5073414;28;20552;-75
2022/06/04 02:13:03;;;;;;;10.30;9.33;;;;;;;;;;5063235;28;20478;-76
2022/06/04 02:15:33;;;;;;;9.30;8.40;;;;;;;;;;5074141;28;20580;-76
2022/06/04 02:18:03;;;;;;;10.23;9.33;;;;;;;;;;5071848;28;20854;-75
2022/06/04 02:20:30;;;;;;;12.10;11.00;;;;;;;;;;5072602;28;20429;-75
2022/06/04 02:22:56;;;;;;;10.77;9.63;;;;;;;;;;5073596;28;20513;-75
2022/06/04 02:25:23;;;;;;;11.30;10.30;;;;;;;;;;5071923;28;20445;-75
2022/06/04 02:27:53;;;;;;;11.43;10.43;;;;;;;;;;5054142;28;20450;-76
2022/06/04 02:30:20;;;;;;;11.87;10.67;;;;;;;;;;5060081;28;21211;-76
2022/06/04 02:32:52;;;;;;;11.10;10.03;;;;;;;;;;5069203;28;20431;-75
2022/06/04 02:35:23;;;;;;;10.67;9.70;;;;;;;;;;5037013;28;20561;-75
2022/06/04 02:37:54;;;;;;;11.60;10.60;;;;;;;;;;5069675;28;20502;-75
2022/06/04 02:40:23;;;;;;;10.87;9.80;;;;;;;;;;5084895;28;20456;-75
2022/06/04 02:42:52;;;;;;;11.87;10.73;;;;;;;;;;5067050;28;21004;-75
2022/06/04 02:45:22;;;;;;;12.83;11.47;;;;;;;;;;5052466;28;20907;-75
2022/06/04 02:47:51;;;;;;;12.30;11.10;;;;;;;;;;5070550;28;20450;-75
2022/06/04 02:50:19;;;;;;;11.90;10.80;;;;;;;;;;5083537;28;20459;-76
2022/06/04 02:52:48;;;;;;;13.10;11.90;;;;;;;;;;5052046;28;20517;-75
2022/06/04 02:55:16;;;;;;;13.23;11.93;;;;;;;;;;5054789;28;20836;-75
2022/06/04 02:57:44;;;;;;;13.93;12.57;;;;;;;;;;5068106;28;20474;-75
2022/06/04 03:00:17;;;;;;;11.60;10.70;;;;;;;;;;5069222;28;20538;-76
2022/06/04 03:02:44;;;;;;;11.33;10.33;;;;;;;;;;5051227;28;20439;-75
2022/06/04 03:05:12;;;;;;;11.30;10.30;;;;;;;;;;5054869;28;20442;-75
2022/06/04 03:07:40;;;;;;;10.87;9.90;;;;;;;;;;5072534;28;20450;-76
2022/06/04 03:10:11;;;;;;;11.17;10.00;;;;;;;;;;5073430;28;20532;-76
2022/06/04 03:12:37;;;;;;;10.43;9.50;;;;;;;;;;5044240;28;20943;-75
2022/06/04 03:15:04;;;;;;;10.97;9.97;;;;;;;;;;5072522;28;20958;-76
2022/06/04 03:17:31;;;;;;;12.60;10.43;;;;;;;;;;5061898;28;20472;-76
2022/06/04 03:19:57;;;;;;;10.37;9.27;;;;;;;;;;5068726;28;20439;-75
2022/06/04 03:22:24;;;;;;;9.57;8.63;;;;;;;;;;5052283;28;20435;-75
2022/06/04 03:24:50;;;;;;;10.17;9.17;;;;;;;;;;5075859;28;20534;-75
2022/06/04 03:27:18;;;;;;;11.50;10.40;;;;;;;;;;5071588;28;20422;-76
2022/06/04 03:29:46;;;;;;;11.10;10.00;;;;;;;;;;5062586;28;20847;-75
2022/06/04 03:32:12;;;;;;;10.57;9.67;;;;;;;;;;5067607;28;20926;-75
2022/06/04 03:34:39;;;;;;;10.90;9.80;;;;;;;;;;5075606;28;20458;-76
2022/06/04 03:37:05;;;;;;;9.03;8.20;;;;;;;;;;5067746;28;20481;-75
2022/06/04 03:39:32;;;;;;;10.17;9.20;;;;;;;;;;5052515;28;20439;-75
2022/06/04 03:42:01;;;;;;;9.53;8.60;;;;;;;;;;5066825;28;20929;-76
2022/06/04 03:44:29;;;;;;;10.40;9.30;;;;;;;;;;5079618;28;20454;-76
2022/06/04 03:46:55;;;;;;;9.47;8.57;;;;;;;;;;5074757;28;20471;-75
2022/06/04 03:49:22;;;;;;;10.20;9.20;;;;;;;;;;5067691;28;20524;-76
2022/06/04 03:51:48;;;;;;;9.77;8.83;;;;;;;;;;5054613;28;20569;-75
2022/06/04 03:54:15;;;;;;;10.10;9.20;;;;;;;;;;5068350;28;20451;-75
2022/06/04 03:56:42;;;;;;;11.73;10.73;;;;;;;;;;5051458;28;20519;-76
2022/06/04 03:59:08;;;;;;;10.77;9.77;;;;;;;;;;5068078;28;20447;-75
2022/06/04 04:01:36;;;;;;;12.00;10.80;;;;;;;;;;5069863;28;20937;-75
2022/06/04 04:04:03;;;;;;;16.20;10.43;;;;;;;;;;5056796;28;20513;-75
2022/06/04 04:06:30;;;;;;;11.67;10.57;;;;;;;;;;5052054;28;20528;-75
2022/06/04 04:08:57;;;;;;;10.60;9.70;;;;;;;;;;5074969;28;20446;-75
2022/06/04 04:11:25;;;;;;;10.67;9.60;;;;;;;;;;5035556;28;20466;-76
2022/06/04 04:13:52;;;;;;;10.77;9.73;;;;;;;;;;5066125;28;20548;-76
2022/06/04 04:16:19;;;;;;;10.00;9.10;;;;;;;;;;5053586;28;20553;-75
2022/06/04 04:18:47;;;;;;;11.63;9.57;;;;;;;;;;5056555;28;20517;-76
2022/06/04 04:21:14;;;;;;;10.73;9.73;;;;;;;;;;5050545;28;20450;-75
2022/06/04 04:23:41;;;;;;;11.57;10.57;;;;;;;;;;5070354;28;20798;-76
2022/06/04 04:26:09;;;;;;;11.20;10.20;;;;;;;;;;5067035;28;20537;-76
2022/06/04 04:28:36;;;;;;;10.50;8.83;;;;;;;;;;5067270;28;20443;-75
2022/06/04 04:31:03;;;;;;;10.77;9.60;;;;;;;;;;5076007;28;20449;-76
2022/06/04 04:33:29;;;;;;;10.00;9.10;;;;;;;;;;5085725;28;20545;-75
2022/06/04 04:35:57;;;;;;;10.53;9.07;;;;;;;;;;5068932;28;20432;-75
2022/06/04 04:38:27;;;;;;;9.53;8.73;;;;;;;;;;5085345;28;20568;-75
2022/06/04 04:40:53;;;;;;;9.33;8.53;;;;;;;;;;5063930;28;20469;-75
2022/06/04 04:43:20;;;;;;;9.60;8.60;;;;;;;;;;5059724;28;20530;-75
2022/06/04 04:45:47;;;;;;;9.27;8.47;;;;;;;;;;5051745;28;20571;-75
2022/06/04 04:48:14;;;;;;;10.30;9.13;;;;;;;;;;5066452;28;20960;-75
2022/06/04 04:50:46;;;;;;;9.60;8.80;;;;;;;;;;5063440;28;20515;-75
2022/06/04 04:53:14;;;;;;;9.63;8.73;;;;;;;;;;5070475;28;20418;-76
2022/06/04 04:55:45;;;;;;;9.80;8.90;;;;;;;;;;5051465;28;20457;-75
2022/06/04 04:58:12;;;;;;;11.43;8.57;;;;;;;;;;5054582;28;20500;-76
2022/06/04 05:00:39;;;;;;;9.07;8.33;;;;;;;;;;5067060;28;20503;-76
2022/06/04 05:03:05;;;;;;;7.97;7.27;;;;;;;;;;5069928;28;20525;-75
2022/06/04 05:05:32;;;;;;;8.17;7.47;;;;;;;;;;5071842;28;20460;-76
2022/06/04 05:07:58;;;;;;;9.43;7.00;;;;;;;;;;5070995;28;20469;-75
2022/06/04 05:10:26;;;;;;;8.30;7.50;;;;;;;;;;5069218;28;20486;-75
2022/06/04 05:12:53;;;;;;;8.00;7.40;;;;;;;;;;5066297;28;20828;-75
2022/06/04 05:15:20;;;;;;;8.43;7.70;;;;;;;;;;5059338;28;20853;-76
2022/06/04 05:17:46;;;;;;;8.30;7.60;;;;;;;;;;5054125;28;20477;-76
2022/06/04 05:20:13;;;;;;;9.30;8.40;;;;;;;;;;5071902;28;20496;-75
2022/06/04 05:22:39;;;;;;;8.93;8.17;;;;;;;;;;5074475;28;20908;-76
2022/06/04 05:25:06;;;;;;;9.30;8.50;;;;;;;;;;5068390;28;20494;-76
2022/06/04 05:27:34;;;;;;;9.17;8.37;;;;;;;;;;5070142;28;20864;-75
2022/06/04 05:30:01;;;;;;;8.97;8.17;;;;;;;;;;5053833;28;20532;-75
2022/06/04 05:32:27;;;;;;;8.67;7.97;;;;;;;;;;5073771;28;20508;-75
2022/06/04 05:34:54;;;;;;;8.70;7.97;;;;;;;;;;5061516;28;20453;-75
2022/06/04 05:37:20;;;;;;;8.40;7.70;;;;;;;;;;5055249;28;20466;-76
2022/06/04 05:39:47;;;;;;;8.37;7.60;;;;;;;;;;5079773;28;20538;-75
2022/06/04 05:42:13;;;;;;;8.40;7.60;;;;;;;;;;5073708;28;20452;-75
2022/06/04 05:44:41;;;;;;;7.50;6.90;;;;;;;;;;5070097;28;20434;-75
2022/06/04 05:47:08;;;;;;;7.83;7.23;;;;;;;;;;5053752;28;20563;-75
2022/06/04 05:49:34;;;;;;;7.50;6.90;;;;;;;;;;5045102;28;20556;-75
2022/06/04 05:52:01;;;;;;;7.43;6.73;;;;;;;;;;5069382;28;20874;-75
2022/06/04 05:54:28;;;;;;;7.67;6.90;;;;;;;;;;5062232;28;20540;-75
2022/06/04 05:56:54;;;;;;;7.47;6.77;;;;;;;;;;5074178;28;20507;-75
2022/06/04 05:59:22;;;;;;;7.40;6.63;;;;;;;;;;5071784;28;20588;-76
2022/06/04 06:01:50;;;;;;;9.23;8.33;;;;;;;;;;5067909;28;20549;-76
2022/06/04 06:04:18;;;;;;;10.13;9.03;;;;;;;;;;5073537;28;20445;-76
2022/06/04 06:06:46;;;;;;;8.63;7.83;;;;;;;;;;5063998;28;20965;-76
2022/06/04 06:09:13;;;;;;;7.80;7.00;;;;;;;;;;5063521;28;20480;-75
2022/06/04 06:11:40;;;;;;;8.97;8.17;;;;;;;;;;5075328;28;20446;-76
2022/06/04 06:14:08;;;;;;;9.43;8.63;;;;;;;;;;5074131;28;20446;-75
2022/06/04 06:16:35;;;;;;;7.90;7.10;;;;;;;;;;5089804;28;20528;-75
2022/06/04 06:19:03;;;;;;;9.53;8.63;;;;;;;;;;5069990;28;20584;-76
2022/06/04 06:21:31;;;;;;;7.77;7.07;;;;;;;;;;5088702;28;20798;-76
2022/06/04 06:23:58;;;;;;;8.80;7.90;;;;;;;;;;5069978;28;20783;-76
2022/06/04 06:26:26;;;;;;;9.57;8.57;;;;;;;;;;5104552;28;20860;-76
2022/06/04 06:28:53;;;;;;;8.00;7.20;;;;;;;;;;5067579;28;20446;-76
2022/06/04 06:31:22;;;;;;;8.13;7.30;;;;;;;;;;5072185;28;20436;-76
2022/06/04 06:33:49;;;;;;;8.53;7.83;;;;;;;;;;5105741;28;20489;-76
2022/06/04 06:36:17;;;;;;;8.57;7.77;;;;;;;;;;5052299;28;20453;-76
2022/06/04 06:38:45;;;;;;;9.43;8.63;;;;;;;;;;5071618;28;20462;-76
2022/06/04 06:41:12;;;;;;;8.47;7.67;;;;;;;;;;5072696;28;20472;-76
2022/06/04 06:43:39;;;;;;;8.10;7.30;;;;;;;;;;5072029;28;21100;-76
2022/06/04 06:46:07;;;;;;;8.53;7.73;;;;;;;;;;5068029;28;20871;-76
2022/06/04 06:48:33;;;;;;;9.43;8.50;;;;;;;;;;5064035;28;20447;-76
2022/06/04 06:51:05;;;;;;;10.03;9.00;;;;;;;;;;5051781;28;20435;-76
2022/06/04 06:53:33;;;;;;;10.73;8.43;;;;;;;;;;5039598;28;20459;-76
2022/06/04 06:56:08;;;;;;;11.77;8.97;;;;;;;;;;5063937;28;20494;-76
2022/06/04 06:58:34;;;;;;;10.63;9.63;;;;;;;;;;5066710;28;20458;-76
2022/06/04 07:01:01;;;;;;;9.53;8.60;;;;;;;;;;5067286;28;21025;-76
2022/06/04 07:03:27;;;;;;;9.53;8.63;;;;;;;;;;5070563;28;20477;-76
2022/06/04 07:05:55;;;;;;;9.57;8.77;;;;;;;;;;5070987;28;20433;-76
2022/06/04 07:08:22;;;;;;;10.50;9.50;;;;;;;;;;5070921;28;20431;-76
2022/06/04 07:10:49;;;;;;;11.20;10.17;;;;;;;;;;5087081;28;20461;-76
2022/06/04 07:13:16;;;;;;;11.13;10.07;;;;;;;;;;5063926;28;20434;-76
2022/06/04 07:15:43;;;;;;;14.37;9.63;;;;;;;;;;5068367;28;20458;-76
2022/06/04 07:18:10;;;;;;;10.53;9.50;;;;;;;;;;5060055;28;20470;-76
2022/06/04 07:20:38;;;;;;;10.53;9.57;;;;;;;;;;5062489;28;20441;-75
2022/06/04 07:23:04;;;;;;;11.33;10.30;;;;;;;;;;5069742;28;20458;-76
2022/06/04 07:25:31;;;;;;;10.10;9.20;;;;;;;;;;5071506;28;20442;-76
2022/06/04 07:27:59;;;;;;;9.83;8.93;;;;;;;;;;5052653;28;20427;-76
2022/06/04 07:30:26;;;;;;;10.53;9.43;;;;;;;;;;5069529;28;20520;-76
2022/06/04 07:32:55;;;;;;;10.83;9.73;;;;;;;;;;5068172;28;20454;-76
2022/06/04 07:35:24;;;;;;;11.17;9.90;;;;;;;;;;5064815;28;20465;-76
2022/06/04 07:37:51;;;;;;;9.90;8.90;;;;;;;;;;5101225;28;20536;-76
2022/06/04 07:40:17;;;;;;;10.70;9.80;;;;;;;;;;5070841;28;20932;-75
2022/06/04 07:42:45;;;;;;;10.70;9.43;;;;;;;;;;5069076;28;20464;-75
2022/06/04 07:45:13;;;;;;;8.73;7.87;;;;;;;;;;5056681;28;20443;-77
2022/06/04 07:47:41;;;;;;;10.43;9.43;;;;;;;;;;5068846;28;20448;-76
2022/06/04 07:50:08;;;;;;;11.27;10.20;;;;;;;;;;5070409;28;20442;-76
2022/06/04 07:52:37;;;;;;;11.17;9.80;;;;;;;;;;5069418;28;20839;-75
2022/06/04 07:55:05;;;;;;;11.60;10.50;;;;;;;;;;5086437;28;20538;-76
2022/06/04 07:57:32;;;;;;;11.90;10.50;;;;;;;;;;5068507;28;20921;-76
2022/06/04 07:59:58;;;;;;;12.30;11.20;;;;;;;;;;5070596;28;20988;-75
2022/06/04 08:02:26;;;;;;;13.70;12.47;;;;;;;;;;5051546;28;20537;-75
2022/06/04 08:04:53;;;;;;;13.00;11.80;;;;;;;;;;5053430;28;20946;-76
2022/06/04 08:07:20;;;;;;;14.70;13.40;;;;;;;;;;5069851;28;20453;-76
2022/06/04 08:09:48;;;;;;;12.53;11.40;;;;;;;;;;5060120;28;20781;-75
2022/06/04 08:12:14;;;;;;;13.83;12.53;;;;;;;;;;5070176;28;20504;-75
2022/06/04 08:14:44;;;;;;;13.73;12.43;;;;;;;;;;5066143;28;20463;-76
2022/06/04 08:17:11;;;;;;;13.43;12.00;;;;;;;;;;5049660;28;20439;-75
2022/06/04 08:19:39;;;;;;;12.47;11.37;;;;;;;;;;5052270;28;20585;-75
2022/06/04 08:22:06;;;;;;;13.90;12.50;;;;;;;;;;5066389;28;20982;-76
2022/06/04 08:24:33;;;;;;;16.07;13.23;;;;;;;;;;5055249;28;20454;-75
2022/06/04 08:27:02;;;;;;;13.93;12.73;;;;;;;;;;5059439;28;20481;-75
2022/06/04 08:29:30;;;;;;;14.40;13.13;;;;;;;;;;5067218;28;20953;-75
2022/06/04 08:31:57;;;;;;;12.50;11.30;;;;;;;;;;5075193;28;20453;-76
2022/06/04 08:34:24;;;;;;;16.80;12.07;;;;;;;;;;5066580;28;20438;-76
2022/06/04 08:36:52;;;;;;;14.47;13.07;;;;;;;;;;5068747;28;20458;-76
2022/06/04 08:39:19;;;;;;;11.77;10.60;;;;;;;;;;5052256;28;20543;-75
2022/06/04 08:42:00;;;;;;;12.13;11.13;;;;;;;;;;5055355;28;20433;-76
2022/06/04 08:44:29;;;;;;;12.67;11.47;;;;;;;;;;5056339;28;20466;-75
2022/06/04 08:47:00;;;;;;;15.20;13.80;;;;;;;;;;5049395;28;20466;-76
2022/06/04 08:49:30;;;;;;;13.70;12.50;;;;;;;;;;5054407;28;20552;-78
2022/06/04 08:51:58;;;;;;;13.07;11.97;;;;;;;;;;5057508;28;20451;-79
2022/06/04 08:59:58;;;;;;;12.10;11.17;;;;;;;;;;5064505;28;20474;-79
2022/06/04 09:02:29;;;;;;;11.20;10.23;;;;;;;;;;5073925;28;20457;-79
2022/06/04 09:05:01;;;;;;;12.67;11.23;;;;;;;;;;5057099;28;20853;-79
2022/06/04 09:07:31;;;;;;;11.27;10.27;;;;;;;;;;5069192;28;20485;-79
2022/06/04 09:10:03;;;;;;;12.33;11.10;;;;;;;;;;5064147;28;20775;-79
2022/06/04 09:12:33;;;;;;;11.57;10.63;;;;;;;;;;5041794;28;20787;-79
2022/06/04 09:15:01;;;;;;;10.77;9.87;;;;;;;;;;5058763;28;21293;-76
2022/06/04 09:17:33;;;;;;;10.53;9.73;;;;;;;;;;5053475;28;20461;-75
2022/06/04 09:20:00;;;;;;;12.07;10.97;;;;;;;;;;5067456;28;20508;-76
2022/06/04 09:22:32;;;;;;;10.80;9.80;;;;;;;;;;5067076;28;20445;-76
2022/06/04 09:25:00;;;;;;;11.07;9.97;;;;;;;;;;5068046;28;20457;-75
2022/06/04 09:27:33;;;;;;;10.60;9.70;;;;;;;;;;5064956;28;20430;-76
2022/06/04 09:30:10;;;;;;;10.90;9.97;;;;;;;;;;5068820;28;20450;-76
2022/06/04 09:32:47;;;;;;;10.03;9.23;;;;;;;;;;5066326;28;20449;-76
2022/06/04 09:35:17;;;;;;;9.77;8.97;;;;;;;;;;5059644;28;20940;-76
2022/06/04 09:37:52;;;;;;;9.90;9.10;;;;;;;;;;5060570;28;20449;-76
2022/06/04 09:40:22;;;;;;;9.73;8.80;;;;;;;;;;5069708;28;20485;-79
2022/06/04 09:42:48;;;;;;;9.90;9.00;;;;;;;;;;5059146;28;20461;-79
2022/06/04 09:45:18;;;;;;;9.30;8.50;;;;;;;;;;5063016;28;20576;-79
2022/06/04 09:47:45;;;;;;;8.90;8.10;;;;;;;;;;5065365;28;20453;-79
2022/06/04 09:50:19;;;;;;;8.70;7.90;;;;;;;;;;5058965;28;20834;-79
2022/06/04 09:52:47;;;;;;;9.23;8.53;;;;;;;;;;5064591;28;20510;-79
2022/06/04 09:55:18;;;;;;;9.93;9.13;;;;;;;;;;5083095;28;20554;-79
2022/06/04 09:57:55;;;;;;;13.60;12.50;;;;;;;;;;5069507;28;20426;-79
2022/06/04 10:00:23;;;;;;;14.17;13.00;;;;;;;;;;5068187;28;20473;-79
2022/06/04 10:02:53;;;;;;;14.37;13.27;;;;;;;;;;5050571;28;20500;-79
2022/06/04 10:05:24;;;;;;;14.17;12.97;;;;;;;;;;5049630;28;20435;-79
2022/06/04 10:07:51;;;;;;;13.70;12.67;;;;;;;;;;5065454;28;20458;-79
2022/06/04 10:10:25;;;;;;;14.10;12.77;;;;;;;;;;5083685;28;20434;-79
2022/06/04 10:15:41;;;;;;;14.27;13.07;;;;;;;;;;5070946;28;20920;-79
2022/06/04 10:18:18;;;;;;;14.90;13.60;;;;;;;;;;5057805;28;20434;-79
2022/06/04 10:20:52;;;;;;;14.63;13.33;;;;;;;;;;5052870;28;20450;-79
2022/06/04 10:23:18;;;;;;;15.87;14.47;;;;;;;;;;5055790;28;20443;-79
2022/06/04 10:25:50;;;;;;;18.93;17.03;;;;;;;;;;5064233;28;20442;-77
2022/06/04 10:28:25;;;;;;;18.40;16.90;;;;;;;;;;5072365;28;20441;-77
2022/06/04 10:30:57;;;;;;;18.33;16.83;;;;;;;;;;5055130;28;20456;-76
2022/06/04 10:33:30;;;;;;;19.97;18.20;;;;;;;;;;5069819;28;20448;-77
2022/06/04 10:36:05;;;;;;;20.47;18.67;;;;;;;;;;5053934;28;20475;-77
2022/06/04 10:38:37;;;;;;;18.77;16.97;;;;;;;;;;5052455;28;20441;-79
2022/06/04 10:41:08;;;;;;;16.97;15.43;;;;;;;;;;5053332;28;20467;-79
2022/06/04 10:43:46;;;;;;;18.27;16.47;;;;;;;;;;5060396;28;20545;-77
2022/06/04 10:46:18;;;;;;;18.27;16.43;;;;;;;;;;5085202;28;20509;-77
2022/06/04 10:48:52;;;;;;;17.00;15.50;;;;;;;;;;5071358;28;20415;-77
2022/06/04 10:51:28;;;;;;;16.30;14.90;;;;;;;;;;5067710;28;20454;-79
2022/06/04 10:53:59;;;;;;;14.57;13.13;;;;;;;;;;5069222;28;20772;-77
2022/06/04 10:56:28;;;;;;;13.43;12.23;;;;;;;;;;5071567;28;20450;-79
2022/06/04 10:59:02;;;;;;;13.70;12.60;;;;;;;;;;5064605;28;20734;-79
2022/06/04 11:01:32;;;;;;;13.83;12.43;;;;;;;;;;5054778;28;20473;-77
2022/06/04 11:04:02;;;;;;;12.63;11.43;;;;;;;;;;5070803;28;20559;-77
2022/06/04 11:06:30;;;;;;;14.30;13.00;;;;;;;;;;5075503;28;20485;-77
2022/06/04 11:08:59;;;;;;;14.07;12.73;;;;;;;;;;5058304;28;20496;-77
2022/06/04 11:11:28;;;;;;;13.87;12.63;;;;;;;;;;5082185;28;20458;-77
2022/06/04 11:13:57;;;;;;;16.87;15.20;;;;;;;;;;5070843;28;20467;-77
2022/06/04 11:16:26;;;;;;;17.50;15.80;;;;;;;;;;5054896;28;20848;-80
2022/06/04 11:18:56;;;;;;;19.23;17.53;;;;;;;;;;5067869;28;20431;-77
2022/06/04 11:21:27;;;;;;;20.57;18.77;;;;;;;;;;5062127;28;20452;-79
2022/06/04 11:23:55;;;;;;;17.80;16.00;;;;;;;;;;5072326;28;20461;-79
2022/06/04 11:26:25;;;;;;;21.17;19.17;;;;;;;;;;5057055;28;20446;-77
2022/06/04 11:28:52;;;;;;;22.77;20.77;;;;;;;;;;5053143;28;20506;-78
2022/06/04 11:31:28;;;;;;;23.10;20.90;;;;;;;;;;5075926;28;20454;-78
2022/06/04 11:33:59;;;;;;;21.87;19.77;;;;;;;;;;5068755;28;20536;-78
2022/06/04 11:36:29;;;;;;;21.80;19.70;;;;;;;;;;5070947;28;20540;-80
2022/06/04 11:39:15;;;;;;;23.13;20.90;;;;;;;;;;5071850;28;20511;-78
2022/06/04 11:41:46;;;;;;;22.27;20.20;;;;;;;;;;5067102;28;20507;-78
2022/06/04 11:44:24;;;;;;;20.97;19.07;;;;;;;;;;5051961;28;20797;-78
2022/06/04 11:47:01;;;;;;;21.70;19.50;;;;;;;;;;5067898;28;20573;-78
2022/06/04 11:49:33;;;;;;;21.33;19.43;;;;;;;;;;5077260;28;20476;-78
2022/06/04 11:52:05;;;;;;;22.77;20.67;;;;;;;;;;5066947;28;20552;-78
2022/06/04 11:54:41;;;;;;;24.43;22.13;;;;;;;;;;5071445;28;20434;-78
2022/06/04 11:57:12;;;;;;;23.87;21.70;;;;;;;;;;5070890;28;20903;-78
2022/06/04 11:59:49;;;;;;;30.30;23.33;;;;;;;;;;5067777;28;20569;-79
2022/06/04 12:02:22;;;;;;;25.30;22.70;;;;;;;;;;5067664;28;20457;-78
2022/06/04 12:04:55;;;;;;;27.00;24.30;;;;;;;;;;5073141;28;20429;-77
2022/06/04 12:07:27;;;;;;;24.70;22.23;;;;;;;;;;5058340;28;20525;-78
2022/06/04 12:09:57;;;;;;;28.20;25.40;;;;;;;;;;5066678;28;20427;-78
2022/06/04 12:12:27;;;;;;;26.97;24.47;;;;;;;;;;5071189;28;20441;-78
2022/06/04 12:14:56;;;;;;;28.30;25.50;;;;;;;;;;5069455;28;20854;-78
2022/06/04 12:17:25;;;;;;;26.87;24.37;;;;;;;;;;5067419;28;20459;-78
2022/06/04 12:25:35;;;;;;;28.80;26.10;;;;;;;;;;5052527;28;20443;-78
2022/06/04 12:28:02;;;;;;;28.97;26.27;;;;;;;;;;5066028;28;20775;-78
2022/06/04 12:30:47;;;;;;;26.80;24.30;;;;;;;;;;5071135;28;20465;-78
2022/06/04 12:33:24;;;;;;;24.43;22.07;;;;;;;;;;5067821;28;20482;-78
2022/06/04 12:35:56;;;;;;;24.13;21.93;;;;;;;;;;5067124;28;20456;-78
2022/06/04 12:38:23;;;;;;;25.30;22.60;;;;;;;;;;5071700;28;20904;-78
2022/06/04 12:40:51;;;;;;;23.20;21.10;;;;;;;;;;5069901;28;20494;-78
2022/06/04 12:43:30;;;;;;;24.77;22.27;;;;;;;;;;5058106;28;20454;-78
2022/06/04 12:46:06;;;;;;;22.10;20.03;;;;;;;;;;5070632;28;21003;-78
2022/06/04 12:48:40;;;;;;;19.23;17.53;;;;;;;;;;5070234;28;20548;-78
2022/06/04 12:51:09;;;;;;;18.00;16.50;;;;;;;;;;5066654;28;20534;-78
2022/06/04 12:53:37;;;;;;;19.63;17.50;;;;;;;;;;5067253;28;20558;-78
2022/06/04 12:56:07;;;;;;;19.97;18.27;;;;;;;;;;5070679;28;20520;-78
2022/06/04 12:58:36;;;;;;;18.80;17.20;;;;;;;;;;5067127;28;20465;-78
2022/06/04 13:01:04;;;;;;;19.00;17.40;;;;;;;;;;5066113;28;20560;-78
2022/06/04 13:03:38;;;;;;;15.67;14.17;;;;;;;;;;5070631;28;20549;-78
2022/06/04 13:06:22;;;;;;;16.30;14.83;;;;;;;;;;5068618;28;20491;-78
2022/06/04 13:08:52;;;;;;;15.20;13.87;;;;;;;;;;5052773;28;20438;-78
2022/06/04 13:11:27;;;;;;;16.47;15.03;;;;;;;;;;5052483;28;20656;-78
2022/06/04 13:13:56;;;;;;;14.83;13.43;;;;;;;;;;5071249;28;20498;-77
2022/06/04 13:16:27;;;;;;;15.50;14.00;;;;;;;;;;5060308;28;20453;-78
2022/06/04 13:19:02;;;;;;;16.47;15.10;;;;;;;;;;5054312;28;20537;-78
2022/06/04 13:21:29;;;;;;;16.73;15.33;;;;;;;;;;5056704;28;20469;-78
2022/06/04 13:23:58;;;;;;;15.43;14.10;;;;;;;;;;5067252;28;20481;-78
2022/06/04 13:26:31;;;;;;;13.67;12.47;;;;;;;;;;5068922;28;20442;-78
2022/06/04 13:28:58;;;;;;;11.00;10.10;;;;;;;;;;5068534;28;20801;-78
2022/06/04 13:31:26;;;;;;;15.90;14.50;;;;;;;;;;5069865;28;20434;-78
2022/06/04 13:33:54;;;;;;;14.10;12.90;;;;;;;;;;5098269;28;20497;-78
2022/06/04 13:36:23;;;;;;;15.50;14.10;;;;;;;;;;5067834;28;20454;-78
2022/06/04 13:38:51;;;;;;;14.00;12.57;;;;;;;;;;5070524;28;20483;-78
2022/06/04 13:42:00;;;;;;;14.97;13.50;;;;;;;;;;5067654;28;20476;-78
2022/06/04 13:44:06;;;;;;;13.00;11.80;;;;;;;;;;5104176;28;20449;-77
2022/06/04 13:46:32;;;;;;;13.77;12.57;;;;;;;;;;5074412;28;20507;-78
2022/06/04 13:49:04;;;;;;;12.10;11.00;;;;;;;;;;5073319;28;20422;-78
2022/06/04 13:51:32;;;;;;;12.17;11.17;;;;;;;;;;5087170;28;20457;-78
2022/06/04 13:54:01;;;;;;;12.10;11.00;;;;;;;;;;5067053;28;20442;-78
2022/06/04 13:56:34;;;;;;;11.67;10.57;;;;;;;;;;5051540;28;20443;-78
2022/06/04 13:59:01;;;;;;;13.60;12.50;;;;;;;;;;5067714;28;20604;-78
2022/06/04 14:01:32;;;;;;;12.27;11.10;;;;;;;;;;5073889;28;20474;-78
2022/06/04 14:06:40;;;;;;;11.43;10.33;;;;;;;;;;5061328;28;20440;-78
2022/06/04 14:09:07;;;;;;;11.20;10.10;;;;;;;;;;5066523;28;20445;-78
2022/06/04 14:11:38;;;;;;;10.90;9.80;;;;;;;;;;5072076;28;20437;-78
2022/06/04 14:14:20;;;;;;;9.70;8.90;;;;;;;;;;5065942;28;20533;-78
2022/06/04 14:16:54;;;;;;;9.77;9.00;;;;;;;;;;5053341;28;20451;-78
2022/06/04 14:19:28;;;;;;;9.00;8.07;;;;;;;;;;5053641;28;20530;-78
2022/06/04 14:22:01;;;;;;;8.83;8.13;;;;;;;;;;5052284;28;20473;-77
2022/06/04 14:24:45;;;;;;;7.37;6.60;;;;;;;;;;5074081;28;20450;-78
2022/06/04 14:27:17;;;;;;;8.03;7.33;;;;;;;;;;5071954;28;20742;-78
2022/06/04 14:29:46;;;;;;;8.70;7.80;;;;;;;;;;5070568;28;20533;-78
2022/06/04 14:32:18;;;;;;;9.13;8.43;;;;;;;;;;5065816;28;20529;-77
2022/06/04 14:34:46;;;;;;;7.90;7.23;;;;;;;;;;5065655;28;20471;-78
2022/06/04 14:37:22;;;;;;;7.60;6.50;;;;;;;;;;5072664;28;20491;-78
2022/06/04 14:39:48;;;;;;;7.33;6.63;;;;;;;;;;5071911;28;20973;-79
2022/06/04 14:42:26;;;;;;;7.93;7.23;;;;;;;;;;5052069;28;20423;-78
2022/06/04 14:45:07;;;;;;;7.30;6.80;;;;;;;;;;5066209;28;20552;-78
2022/06/04 14:47:51;;;;;;;6.90;6.30;;;;;;;;;;5098723;28;20436;-78
2022/06/04 14:50:25;;;;;;;7.30;6.70;;;;;;;;;;5059504;28;20441;-78
2022/06/04 14:52:55;;;;;;;7.90;7.30;;;;;;;;;;5065035;28;20541;-78
2022/06/04 14:55:25;;;;;;;8.87;7.90;;;;;;;;;;5050405;28;20814;-78
2022/06/04 14:58:08;;;;;;;9.17;8.37;;;;;;;;;;5074040;28;20557;-78
2022/06/04 15:00:41;;;;;;;8.87;8.17;;;;;;;;;;5071460;28;20516;-78
2022/06/04 15:03:23;;;;;;;9.53;8.77;;;;;;;;;;5088774;28;20481;-78
2022/06/04 15:05:55;;;;;;;9.97;9.07;;;;;;;;;;5072457;28;21018;-78